• Join FlightAware (Why Join?)
  • Login
  • US Flag 
04:52AM EDT


 

Airport Tracker/Info


-or-


 

Live Flight TrackerFlight Track Log ✈ SKW5631 ✈ 11-Dec-2013 ✈ KSFO - KBUR

Flight Track Log - Related Links

Times and Time Zones

All times are in EST time to prevent confusion due to time zone crossing. See the SKW5631 flight status page for this flight to view local times or setup timezone preferences in your user account.

Time Position Orientation Groundspeed Altitude Reporting Facility
EST Latitude Longitude Course Direction KTS MPH feet Rate Location/Type
11:24PM 37.6811 -122.3847 138° Southeast 241 277 2,900  Level Oakland Center
11:25PM 37.6969 -122.4597 285° West 236 272 5,500 2,700 Climbing Oakland Center
11:26PM 37.6442 -122.5267 225° Southwest 263 303 8,500 2,700 Climbing Oakland Center
11:27PM 37.5711 -122.5153 173° South 287 330 11,000 2,220 Climbing Oakland Center
11:28PM 37.4914 -122.4308 140° Southeast 317 365 13,100 1,920 Climbing Oakland Center
11:29PM 37.2137 -121.8715 138° Southeast  Level Estimated
11:29PM 37.4208 -122.3508 138° Southeast 338 389 15,000  Level Oakland Center
11:30PM 37.3461 -122.2697 139° Southeast 353 406 16,600 1,380 Climbing Oakland Center
11:31PM 37.2711 -122.1858 138° Southeast 360 414 17,900 1,320 Climbing Oakland Center
11:32PM 37.1933 -122.1011 139° Southeast 370 426 19,300 1,320 Climbing Oakland Center
11:33PM 37.1147 -122.0142 139° Southeast 376 433 20,600 1,140 Climbing Oakland Center
11:34PM 37.0336 -121.9267 139° Southeast 383 441 21,700 1,140 Climbing Oakland Center
11:35PM 36.9525 -121.8372 139° Southeast 389 448 23,000 1,080 Climbing Oakland Center
11:36PM 36.8697 -121.7472 139° Southeast 395 455 23,900 1,020 Climbing Oakland Center
11:37PM 36.7717 -121.6428 140° Southeast 402 463 25,100 1,080 Climbing Oakland Center
11:38PM 36.6869 -121.5511 139° Southeast 405 466 26,200 840 Climbing Oakland Center
11:39PM 36.6019 -121.4589 139° Southeast 405 466 26,900 540 Climbing Oakland Center
11:40PM 36.5142 -121.3653 139° Southeast 414 476 27,400 480 Climbing Oakland Center
11:42PM 36.4261 -121.2672 138° Southeast 423 487 27,900 480 Climbing Oakland Center
11:43PM 36.3356 -121.1708 139° Southeast 429 494 28,400 480 Climbing Oakland Center
11:44PM 36.2439 -121.0736 139° Southeast 434 499 28,900 480 Climbing Oakland Center
11:45PM 36.1522 -120.9753 139° Southeast 435 501 29,400 480 Climbing Oakland Center
11:46PM 36.0614 -120.8778 139° Southeast 434 499 29,900 480 Climbing Oakland Center
11:47PM 35.9703 -120.7808 139° Southeast 433 498 30,400 540 Climbing Oakland Center
11:48PM 35.8608 -120.6658 140° Southeast 431 496 31,000 240 Climbing Oakland Center
11:49PM 35.7694 -120.5692 139° Southeast 433 498 31,000  Level Oakland Center
11:50PM 35.6772 -120.4725 140° Southeast 435 501 31,000  Level Oakland Center
11:51PM 35.5858 -120.3767 140° Southeast 432 497 31,000 -780 Level Oakland Center
11:52PM 35.4825 -120.2697 140° Southeast 427 491 29,400 -1,500 Descending Los Angeles Center
11:53PM 35.3950 -120.1767 139° Southeast 418 481 27,800 -1,440 Descending Los Angeles Center
11:54PM 35.3150 -120.0925 139° Southeast 414 476 26,500 -1,620 Descending Los Angeles Center
11:55PM 35.2100 -119.9856 140° Southeast 407 468 24,500 -1,980 Descending Los Angeles Center
11:56PM 35.1300 -119.9028 140° Southeast 380 437 22,500 -1,980 Descending Los Angeles Center
11:57PM 35.0572 -119.8178 136° Southeast 364 419 20,500 -1,980 Descending Los Angeles Center
11:58PM 34.9936 -119.7292 131° Southeast 351 404 18,500 -1,680 Descending Los Angeles Center
11:59PM 34.9303 -119.6447 132° Southeast 339 390 17,100 -1,380 Descending Los Angeles Center
12:00AM 34.8675 -119.5603 132° Southeast 336 387 15,800 -1,260 Descending Los Angeles Center
12:01AM 34.8053 -119.4758 132° Southeast 337 388 14,600 -1,200 Descending Los Angeles Center
12:02AM 34.7436 -119.3925 132° Southeast 332 382 13,400 -1,200 Descending Los Angeles Center
12:03AM 34.6722 -119.2972 132° Southeast 319 367 12,200 -1,080 Descending Los Angeles Center
12:04AM 34.6158 -119.2231 133° Southeast 309 356 11,300 -600 Descending Los Angeles Center
12:05AM 34.5581 -119.1503 134° Southeast 301 346 11,000 -180 Descending Los Angeles Center
12:06AM 34.5039 -119.0758 131° Southeast 296 341 11,000  Level Los Angeles Center
12:07AM 34.4519 -119.0069 132° Southeast 278 320 11,000  Level Los Angeles Center
12:08AM 34.3989 -118.9356 132° Southeast 285 328 11,000 -600 Level Los Angeles Center
12:09AM 34.3453 -118.8728 136° Southeast 267 307 9,800 -1,980 Descending Los Angeles Center
12:10AM 34.2778 -118.8294 152° Southeast 273 314 7,000 -2,400 Descending Los Angeles Center
12:11AM 34.2117 -118.7744 145° Southeast 245 282 5,000 -1,380 Descending Los Angeles Center
12:12AM 34.2047 -118.7011 97° East 231 266 4,200 -540 Descending Los Angeles Center
12:13AM 34.2061 -118.6272 89° East 225 259 4,000 -180 Descending Los Angeles Center
12:14AM 34.2000 -118.5833 100° East 220 253 4,000 -480 Level Southern California TRACON
12:15AM 34.2000 -118.5167 90° East 192 221 3,300 -960 Descending Southern California TRACON
12:16AM 34.2000 -118.4500 90° East 149 171 2,100 -960 Descending Southern California TRACON
12:17AM 34.2000 -118.4167 90° East 142 163 1,400 -480 Descending Southern California TRACON
12:18AM 34.1989 -118.3481 91° East 154 177 1,000 -300 Descending Los Angeles Center